createdAt,value
2019-02-05T00:00:00.605Z,5.53
2019-02-05T00:00:59.323Z,5.56
2019-02-05T00:01:57.931Z,5.53
2019-02-05T00:02:56.531Z,5.57
2019-02-05T00:03:55.159Z,5.53
2019-02-05T00:04:53.705Z,5.54
2019-02-05T00:05:52.260Z,5.67
2019-02-05T00:06:50.844Z,5.71
2019-02-05T00:07:49.428Z,5.65
2019-02-05T00:08:47.978Z,5.51
2019-02-05T00:09:46.748Z,5.48
2019-02-05T00:10:45.470Z,5.48
2019-02-05T00:11:44.041Z,5.49
2019-02-05T00:12:42.680Z,5.46
2019-02-05T00:13:41.277Z,5.49
2019-02-05T00:14:39.816Z,5.53
2019-02-05T00:15:38.404Z,5.56
2019-02-05T00:16:37.024Z,5.71
2019-02-05T00:17:35.591Z,5.65
2019-02-05T00:18:34.164Z,5.83
2019-02-05T00:19:32.850Z,5.85
2019-02-05T00:20:31.526Z,5.83
2019-02-05T00:21:30.921Z,5.9
2019-02-05T00:22:29.457Z,5.85
2019-02-05T00:23:28.008Z,5.91
2019-02-05T00:24:26.632Z,5.96
2019-02-05T00:25:25.298Z,6.03
2019-02-05T00:26:23.884Z,5.9
2019-02-05T00:27:22.607Z,5.99
2019-02-05T00:28:21.180Z,5.9
2019-02-05T00:29:19.720Z,5.93
2019-02-05T00:30:18.286Z,6.01
2019-02-05T00:31:16.867Z,6.08
2019-02-05T00:32:15.394Z,6.19
2019-02-05T00:33:13.987Z,6.21
2019-02-05T00:34:12.575Z,6.17
2019-02-05T00:35:11.176Z,6.19
2019-02-05T00:36:09.851Z,6.27
2019-02-05T00:37:08.585Z,6.18
2019-02-05T00:38:07.250Z,6.25
2019-02-05T00:39:05.788Z,6.27
2019-02-05T00:40:04.351Z,6.21
2019-02-05T00:41:03.116Z,6.17
2019-02-05T00:42:01.642Z,6.09
2019-02-05T00:43:00.215Z,6.03
2019-02-05T00:43:58.797Z,6.04
2019-02-05T00:44:57.427Z,6.11
2019-02-05T00:45:55.961Z,6.06
2019-02-05T00:46:54.761Z,6.08
2019-02-05T00:47:53.387Z,6.01
2019-02-05T00:48:51.933Z,6
2019-02-05T00:49:50.465Z,5.97
2019-02-05T00:50:49.048Z,5.97
2019-02-05T00:51:47.578Z,5.83
2019-02-05T00:52:46.182Z,5.86
2019-02-05T00:53:44.908Z,5.81
2019-02-05T00:54:43.503Z,5.86
2019-02-05T00:55:42.036Z,5.85
2019-02-05T00:56:40.660Z,5.83
2019-02-05T00:57:39.301Z,5.83
2019-02-05T00:58:37.851Z,5.86
2019-02-05T00:59:36.430Z,5.86
2019-02-05T01:00:35.097Z,5.78
2019-02-05T01:01:33.685Z,5.75
2019-02-05T01:02:32.290Z,5.85
2019-02-05T01:03:31.120Z,5.86
2019-02-05T01:04:29.665Z,5.83
2019-02-05T01:05:28.228Z,5.78
2019-02-05T01:06:27.028Z,5.72
2019-02-05T01:07:25.577Z,5.71
2019-02-05T01:08:24.106Z,5.64
2019-02-05T01:09:22.920Z,5.51
2019-02-05T01:10:21.503Z,5.38
2019-02-05T01:11:20.063Z,5.33
2019-02-05T01:12:18.688Z,5.31
2019-02-05T01:13:17.255Z,5.33
2019-02-05T01:14:15.841Z,5.3
2019-02-05T01:15:14.664Z,5.3
2019-02-05T01:16:13.302Z,5.24
2019-02-05T01:17:11.867Z,5.35
2019-02-05T01:18:10.419Z,5.3
2019-02-05T01:19:09.035Z,5.42
2019-02-05T01:20:07.562Z,5.42
2019-02-05T01:21:06.135Z,5.38
2019-02-05T01:22:04.810Z,5.45
2019-02-05T01:23:03.515Z,5.51
2019-02-05T01:24:02.074Z,5.49
2019-02-05T01:25:00.816Z,5.43
2019-02-05T01:25:59.452Z,5.39
2019-02-05T01:26:57.984Z,5.2
2019-02-05T01:27:56.621Z,5.27
2019-02-05T01:28:55.124Z,5.36
2019-02-05T01:29:53.678Z,5.38
2019-02-05T01:30:52.229Z,5.21
2019-02-05T01:31:50.761Z,5.21
2019-02-05T01:32:49.301Z,5.2
2019-02-05T01:33:47.873Z,5.31
2019-02-05T01:34:46.416Z,5.22
2019-02-05T01:35:45.096Z,5.18
2019-02-05T01:36:43.637Z,5.2
2019-02-05T01:37:42.186Z,5.2
2019-02-05T01:38:40.958Z,5.2
2019-02-05T01:39:39.485Z,5.25
2019-02-05T01:40:38.050Z,5.2
2019-02-05T01:41:36.644Z,5.07
2019-02-05T01:42:35.279Z,5.12
2019-02-05T01:43:33.816Z,5.21
2019-02-05T01:44:32.386Z,5.21
2019-02-05T01:45:30.993Z,5.24
2019-02-05T01:46:29.596Z,5.28
2019-02-05T01:47:28.133Z,5.27
2019-02-05T01:48:26.750Z,5.39
2019-02-05T01:49:25.268Z,5.43
2019-02-05T01:50:23.817Z,5.45
2019-02-05T01:51:22.364Z,5.51
2019-02-05T01:52:21.197Z,5.51
2019-02-05T01:53:19.709Z,5.54
2019-02-05T01:54:18.317Z,5.51
2019-02-05T01:55:17.028Z,5.42
2019-02-05T01:56:15.589Z,5.45
2019-02-05T01:57:14.130Z,5.54
2019-02-05T01:58:12.712Z,5.53
2019-02-05T01:59:11.286Z,5.53
2019-02-05T02:00:09.834Z,5.39
2019-02-05T02:01:08.507Z,5.36
2019-02-05T02:02:07.304Z,5.3
2019-02-05T02:03:05.895Z,5.25
2019-02-05T02:04:04.502Z,5.25
2019-02-05T02:05:03.062Z,5.35
2019-02-05T02:06:01.628Z,5.35
2019-02-05T02:07:00.187Z,5.31
2019-02-05T02:07:58.766Z,5.33
2019-02-05T02:08:57.402Z,5.25
2019-02-05T02:09:55.952Z,5.21
2019-02-05T02:10:54.562Z,5.21
2019-02-05T02:11:53.230Z,5.1
2019-02-05T02:12:51.822Z,5.06
2019-02-05T02:13:50.395Z,5.09
2019-02-05T02:14:49.182Z,5.04
2019-02-05T02:15:47.953Z,5.07
2019-02-05T02:16:46.523Z,5.02
2019-02-05T02:17:45.093Z,5
2019-02-05T02:18:43.646Z,4.92
2019-02-05T02:19:42.204Z,4.78
2019-02-05T02:20:40.932Z,4.8
2019-02-05T02:21:39.512Z,4.7
2019-02-05T02:22:38.069Z,4.73
2019-02-05T02:23:36.850Z,4.69
2019-02-05T02:24:35.517Z,4.75
2019-02-05T02:25:34.076Z,4.65
2019-02-05T02:26:32.663Z,4.66
2019-02-05T02:27:31.208Z,4.73
2019-02-05T02:28:29.758Z,4.8
2019-02-05T02:29:28.402Z,4.94
2019-02-05T02:30:27.012Z,4.96
2019-02-05T02:31:25.632Z,5
2019-02-05T02:32:24.204Z,4.91
2019-02-05T02:33:22.976Z,4.94
2019-02-05T02:34:21.544Z,4.86
2019-02-05T02:35:20.082Z,4.77
2019-02-05T02:36:18.708Z,4.89
2019-02-05T02:37:17.245Z,4.75
2019-02-05T02:38:15.873Z,4.77
2019-02-05T02:39:14.414Z,4.75
2019-02-05T02:40:12.969Z,4.82
2019-02-05T02:41:11.507Z,4.77
2019-02-05T02:42:10.115Z,4.77
2019-02-05T02:43:08.756Z,4.82
2019-02-05T02:44:07.351Z,4.78
2019-02-05T02:45:05.899Z,4.75
2019-02-05T02:46:04.715Z,4.69
2019-02-05T02:47:03.323Z,4.78
2019-02-05T02:48:01.885Z,4.78
2019-02-05T02:49:00.440Z,4.75
2019-02-05T02:49:59.001Z,4.78
2019-02-05T02:50:57.553Z,4.73
2019-02-05T02:51:56.114Z,4.84
2019-02-05T02:52:54.817Z,4.8
2019-02-05T02:53:53.387Z,4.77
2019-02-05T02:54:51.937Z,4.75
2019-02-05T02:55:50.515Z,4.77
2019-02-05T02:56:49.143Z,4.8
2019-02-05T02:57:47.691Z,4.84
2019-02-05T02:58:46.415Z,4.92
2019-02-05T02:59:45.011Z,4.86
2019-02-05T03:00:43.625Z,4.89
2019-02-05T03:01:42.153Z,4.84
2019-02-05T03:02:40.776Z,4.77
2019-02-05T03:03:39.307Z,4.72
2019-02-05T03:04:37.853Z,4.7
2019-02-05T03:05:36.589Z,4.7
2019-02-05T03:06:35.185Z,4.73
2019-02-05T03:07:33.722Z,4.77
2019-02-05T03:08:32.277Z,4.67
2019-02-05T03:09:31.114Z,4.67
2019-02-05T03:10:29.690Z,4.62
2019-02-05T03:11:28.254Z,4.65
2019-02-05T03:12:26.897Z,4.6
2019-02-05T03:13:25.444Z,4.59
2019-02-05T03:14:23.993Z,4.58
2019-02-05T03:15:22.620Z,4.72
2019-02-05T03:16:21.346Z,4.65
2019-02-05T03:17:19.911Z,4.66
2019-02-05T03:18:18.711Z,4.66
2019-02-05T03:19:17.383Z,4.62
2019-02-05T03:20:15.940Z,4.63
2019-02-05T03:21:14.487Z,4.67
2019-02-05T03:22:13.007Z,4.75
2019-02-05T03:23:11.566Z,4.62
2019-02-05T03:24:10.109Z,4.67
2019-02-05T03:25:08.658Z,4.77
2019-02-05T03:26:07.220Z,4.73
2019-02-05T03:27:16.888Z,4.66
2019-02-05T03:28:04.397Z,4.67
2019-02-05T03:29:03.040Z,4.65
2019-02-05T03:30:01.669Z,4.65
2019-02-05T03:31:00.194Z,4.7
2019-02-05T03:31:58.990Z,4.69
2019-02-05T03:32:57.541Z,4.73
2019-02-05T03:33:56.088Z,4.75
2019-02-05T03:34:54.793Z,4.66
2019-02-05T03:35:53.328Z,4.63
2019-02-05T03:36:51.894Z,4.58
2019-02-05T03:37:50.413Z,4.51
2019-02-05T03:38:49.007Z,4.5
2019-02-05T03:39:47.576Z,4.45
2019-02-05T03:40:46.136Z,4.41
2019-02-05T03:41:44.803Z,4.5
2019-02-05T03:42:43.343Z,4.54
2019-02-05T03:43:41.884Z,4.52
2019-02-05T03:44:40.487Z,4.48
2019-02-05T03:45:39.250Z,4.47
2019-02-05T03:46:37.805Z,4.51
2019-02-05T03:47:36.374Z,4.51
2019-02-05T03:48:34.918Z,4.51
2019-02-05T03:49:33.577Z,4.51
2019-02-05T03:50:32.130Z,4.65
2019-02-05T03:51:30.681Z,4.67
2019-02-05T03:52:29.364Z,4.6
2019-02-05T03:53:27.905Z,4.5
2019-02-05T03:54:26.458Z,4.36
2019-02-05T03:55:25.254Z,4.36
2019-02-05T03:56:23.778Z,4.41
2019-02-05T03:57:30.576Z,4.32
2019-02-05T03:58:21.058Z,4.36
2019-02-05T03:59:19.603Z,4.36
2019-02-05T04:00:18.168Z,4.32
2019-02-05T04:01:16.702Z,4.26
2019-02-05T04:02:15.251Z,4.14
2019-02-05T04:03:13.822Z,4.16
2019-02-05T04:04:12.403Z,4.22
2019-02-05T04:05:10.991Z,4.27
2019-02-05T04:06:09.530Z,4.29
2019-02-05T04:07:08.080Z,4.29
2019-02-05T04:08:06.719Z,4.42
2019-02-05T04:09:05.400Z,4.44
2019-02-05T04:10:03.918Z,4.37
2019-02-05T04:11:02.591Z,4.45
2019-02-05T04:12:01.714Z,4.51
2019-02-05T04:12:59.801Z,4.59
2019-02-05T04:13:58.348Z,4.5
2019-02-05T04:14:56.915Z,4.47
2019-02-05T04:15:55.576Z,4.32
2019-02-05T04:16:54.118Z,4.29
2019-02-05T04:17:52.805Z,4.15
2019-02-05T04:18:51.509Z,4.16
2019-02-05T04:19:50.058Z,3.97
2019-02-05T04:20:48.812Z,4.02
2019-02-05T04:21:47.506Z,4.16
2019-02-05T04:22:46.141Z,4.23
2019-02-05T04:23:44.600Z,4.26
2019-02-05T04:24:43.173Z,4.29
2019-02-05T04:27:23.409Z,4.36
2019-02-05T04:28:21.955Z,4.3
2019-02-05T04:29:20.826Z,4.3
2019-02-05T04:30:19.467Z,4.33
2019-02-05T04:31:17.991Z,4.33
2019-02-05T04:32:16.559Z,4.32
2019-02-05T04:33:15.141Z,4.29
2019-02-05T04:34:13.697Z,4.23
2019-02-05T04:35:12.251Z,4.26
2019-02-05T04:36:10.942Z,4.41
2019-02-05T04:37:09.523Z,4.42
2019-02-05T04:38:08.067Z,4.37
2019-02-05T04:39:06.620Z,4.42
2019-02-05T04:40:05.262Z,4.51
2019-02-05T04:41:03.801Z,4.45
2019-02-05T04:42:02.459Z,4.62
2019-02-05T04:43:01.112Z,4.5
2019-02-05T04:43:59.835Z,4.54
2019-02-05T04:44:58.601Z,4.51
2019-02-05T04:45:57.473Z,4.51
2019-02-05T04:46:56.050Z,4.42
2019-02-05T04:47:54.677Z,4.34
2019-02-05T04:48:53.338Z,4.47
2019-02-05T04:49:51.861Z,4.42
2019-02-05T04:50:50.480Z,4.42
2019-02-05T04:51:49.026Z,4.34
2019-02-05T04:52:47.621Z,4.32
2019-02-05T04:53:46.344Z,4.37
2019-02-05T04:54:45.211Z,4.24
2019-02-05T04:55:43.778Z,4.26
2019-02-05T04:56:42.344Z,4.27
2019-02-05T04:57:40.928Z,4.27
2019-02-05T04:58:39.523Z,4.26
2019-02-05T04:59:38.077Z,4.22
2019-02-05T05:00:36.640Z,4.15
2019-02-05T05:01:35.169Z,4.05
2019-02-05T05:02:33.725Z,4.12
2019-02-05T05:03:33.812Z,4.11
2019-02-05T05:04:31.151Z,4.11
2019-02-05T05:05:29.728Z,4.11
2019-02-05T05:06:28.416Z,4.06
2019-02-05T05:07:27.073Z,4.11
2019-02-05T05:08:25.625Z,4.11
2019-02-05T05:09:24.195Z,4.09
2019-02-05T05:10:22.731Z,4.08
2019-02-05T05:11:21.293Z,4.06
2019-02-05T05:12:19.819Z,4.08
2019-02-05T05:13:18.958Z,4.09
2019-02-05T05:14:16.883Z,4.04
2019-02-05T05:15:15.434Z,4.09
2019-02-05T05:16:14.000Z,4.05
2019-02-05T05:17:12.720Z,4.11
2019-02-05T05:18:11.457Z,4.23
2019-02-05T05:19:09.989Z,4.22
2019-02-05T05:20:08.657Z,4.16
2019-02-05T05:21:07.354Z,4.24
2019-02-05T05:22:05.984Z,4.26
2019-02-05T05:23:04.529Z,4.36
2019-02-05T05:24:03.196Z,4.22
2019-02-05T05:25:01.744Z,4.26
2019-02-05T05:26:00.284Z,4.22
2019-02-05T05:26:58.985Z,4.15
2019-02-05T05:28:09.404Z,4.16
2019-02-05T05:28:56.169Z,4.36
2019-02-05T05:29:54.802Z,4.27
2019-02-05T05:30:53.422Z,4.23
2019-02-05T05:31:51.994Z,4.24
2019-02-05T05:32:50.537Z,4.23
2019-02-05T05:33:49.134Z,4.22
2019-02-05T05:34:47.669Z,4.05
2019-02-05T05:35:46.219Z,4.09
2019-02-05T05:36:44.770Z,4.11
2019-02-05T05:37:43.328Z,4.16
2019-02-05T05:38:41.882Z,4.12
2019-02-05T05:39:40.537Z,4.04
2019-02-05T05:40:39.194Z,4.08
2019-02-05T05:41:37.741Z,4.15
2019-02-05T05:42:36.522Z,4.05
2019-02-05T05:43:35.223Z,4.02
2019-02-05T05:44:33.746Z,4.12
2019-02-05T05:45:32.314Z,4.16
2019-02-05T05:46:31.108Z,4.18
2019-02-05T05:47:29.655Z,4.14
2019-02-05T05:48:28.206Z,4.14
2019-02-05T05:49:26.858Z,4.09
2019-02-05T05:50:25.430Z,4.2
2019-02-05T05:51:23.975Z,4.14
2019-02-05T05:52:22.683Z,4.14
2019-02-05T05:53:21.394Z,4.11
2019-02-05T05:54:19.955Z,4.02
2019-02-05T05:55:18.456Z,4.15
2019-02-05T05:56:17.008Z,4.04
2019-02-05T05:57:18.658Z,4
2019-02-05T05:58:22.183Z,4.08
2019-02-05T05:59:12.824Z,4.09
2019-02-05T06:00:11.627Z,4.08
2019-02-05T06:01:10.039Z,3.98
2019-02-05T06:02:08.610Z,4.02
2019-02-05T06:03:07.326Z,4.04
2019-02-05T06:04:05.870Z,4.18
2019-02-05T06:05:04.478Z,4.06
2019-02-05T06:06:03.392Z,4.06
2019-02-05T06:07:01.940Z,4.09
2019-02-05T06:08:00.500Z,4.06
2019-02-05T06:08:59.364Z,4
2019-02-05T06:09:57.896Z,3.94
2019-02-05T06:10:56.575Z,4.05
2019-02-05T06:11:55.211Z,3.93
2019-02-05T06:12:53.774Z,3.88
2019-02-05T06:13:52.311Z,3.9
2019-02-05T06:14:50.950Z,3.8
2019-02-05T06:15:49.491Z,3.96
2019-02-05T06:16:48.136Z,3.96
2019-02-05T06:17:46.896Z,3.96
2019-02-05T06:18:45.488Z,3.87
2019-02-05T06:19:44.042Z,3.84
2019-02-05T06:20:43.538Z,3.97
2019-02-05T06:21:42.088Z,4
2019-02-05T06:22:40.617Z,4.05
2019-02-05T06:23:39.344Z,4.12
2019-02-05T06:24:37.903Z,4.05
2019-02-05T06:25:36.809Z,4.05
2019-02-05T06:28:17.252Z,4.04
2019-02-05T06:29:15.817Z,4.16
2019-02-05T06:56:28.628Z,4.5
2019-02-05T06:57:27.188Z,4.51
2019-02-05T06:58:25.749Z,4.55
2019-02-05T06:59:24.337Z,4.52
2019-02-05T07:00:22.959Z,4.62
2019-02-05T07:01:21.690Z,4.54
2019-02-05T07:02:20.425Z,4.66
2019-02-05T07:03:19.125Z,4.75
2019-02-05T07:04:17.673Z,4.7
2019-02-05T07:05:16.218Z,4.7
2019-02-05T07:06:14.745Z,4.8
2019-02-05T07:07:13.421Z,4.75
2019-02-05T07:08:12.024Z,4.75
2019-02-05T07:09:10.535Z,4.89
2019-02-05T07:10:09.191Z,4.88
2019-02-05T07:11:07.762Z,4.82
2019-02-05T07:12:06.299Z,4.63
2019-02-05T07:13:05.084Z,4.58
2019-02-05T07:14:03.741Z,4.73
2019-02-05T07:15:02.292Z,4.73
2019-02-05T07:16:00.872Z,5.09
2019-02-05T07:16:59.430Z,4.94
2019-02-05T07:17:57.987Z,4.88
2019-02-05T07:18:56.554Z,4.63
2019-02-05T07:19:55.265Z,4.58
2019-02-05T07:20:53.768Z,4.6
2019-02-05T07:21:52.308Z,4.58
2019-02-05T07:22:50.951Z,4.6
2019-02-05T07:26:29.593Z,6.06
2019-02-05T07:27:28.140Z,6.19
2019-02-05T07:28:26.803Z,5.17
2019-02-05T07:29:26.697Z,5.33
2019-02-05T07:30:25.324Z,6.12
2019-02-05T07:31:23.877Z,6.04
2019-02-05T07:32:22.430Z,6.25
2019-02-05T07:33:21.252Z,5.81
2019-02-05T07:34:21.281Z,5.49
2019-02-05T07:35:18.972Z,5.53
2019-02-05T07:36:17.533Z,5.38
2019-02-05T07:37:16.154Z,5.38
2019-02-05T07:38:14.880Z,5.33
2019-02-05T07:39:13.580Z,5.28
2019-02-05T07:40:12.103Z,5.22
2019-02-05T07:41:10.644Z,5.31
2019-02-05T07:42:09.194Z,5.31
2019-02-05T07:43:07.807Z,5.36
2019-02-05T07:44:06.439Z,5.38
2019-02-05T07:45:05.162Z,5.27
2019-02-05T07:46:04.688Z,5.31
2019-02-05T07:47:03.387Z,5.33
2019-02-05T07:48:01.993Z,5.21
2019-02-05T07:49:00.620Z,5.07
2019-02-05T07:49:59.186Z,5.06
2019-02-05T07:50:57.739Z,5.2
2019-02-05T07:51:56.262Z,5.3
2019-02-05T07:52:54.840Z,5.75
2019-02-05T07:53:53.383Z,6.25
2019-02-05T07:54:51.927Z,6.4
2019-02-05T07:55:50.525Z,5.56
2019-02-05T07:56:49.200Z,5.31
2019-02-05T07:57:47.743Z,5.06
2019-02-05T07:58:46.336Z,5.31
2019-02-05T07:59:47.052Z,5.36
2019-02-05T08:00:43.704Z,5.33
2019-02-05T08:01:42.248Z,5.4
2019-02-05T08:02:40.968Z,6.87
2019-02-05T08:03:39.528Z,6.64
2019-02-05T08:04:38.090Z,6.52
2019-02-05T08:05:36.822Z,6.25
2019-02-05T08:06:35.641Z,5.85
2019-02-05T08:07:34.186Z,5.38
2019-02-05T08:08:32.875Z,5.43
2019-02-05T08:09:31.471Z,5.28
2019-02-05T08:10:30.070Z,5.17
2019-02-05T08:11:28.614Z,5.28
2019-02-05T08:12:27.175Z,5.24
2019-02-05T08:13:25.735Z,5.46
2019-02-05T08:14:24.275Z,6.43
2019-02-05T08:15:22.898Z,5.83
2019-02-05T08:16:21.476Z,5.61
2019-02-05T08:17:20.043Z,5.71
2019-02-05T08:18:18.559Z,5.49
2019-02-05T08:19:17.356Z,5.35
2019-02-05T08:20:15.948Z,5.36
2019-02-05T08:21:14.577Z,5.33
2019-02-05T08:22:13.281Z,5.22
2019-02-05T08:23:11.812Z,5.22
2019-02-05T08:24:10.369Z,5.33
2019-02-05T08:25:08.928Z,5.33
2019-02-05T08:26:07.458Z,5.3
2019-02-05T08:27:06.016Z,5.28
2019-02-05T08:28:04.568Z,5.46
2019-02-05T08:29:03.280Z,5.57
2019-02-05T08:30:01.841Z,5.65
2019-02-05T08:31:00.404Z,5.71
2019-02-05T08:31:59.210Z,5.85
2019-02-05T08:32:57.841Z,5.82
2019-02-05T08:33:56.532Z,5.94
2019-02-05T08:34:55.102Z,5.93
2019-02-05T08:35:53.673Z,5.91
2019-02-05T08:36:52.204Z,5.99
2019-02-05T08:37:50.918Z,5.93
2019-02-05T08:38:49.570Z,5.78
2019-02-05T08:39:48.108Z,5.96
2019-02-05T08:40:46.860Z,5.86
2019-02-05T08:41:45.540Z,6.11
2019-02-05T08:42:44.092Z,5.99
2019-02-05T08:43:42.770Z,6
2019-02-05T08:44:41.441Z,6.04
2019-02-05T08:47:21.561Z,6.04
2019-02-05T08:48:20.083Z,6
2019-02-05T08:49:19.007Z,5.96
2019-02-05T08:50:17.685Z,5.86
2019-02-05T08:51:16.357Z,5.82
2019-02-05T08:52:15.041Z,5.89
2019-02-05T08:53:13.725Z,5.85
2019-02-05T08:54:12.525Z,5.89
2019-02-05T08:55:11.213Z,5.96
2019-02-05T08:56:09.779Z,6.03
2019-02-05T08:57:08.313Z,5.93
2019-02-05T08:58:07.118Z,6.06
2019-02-05T08:59:05.705Z,6.04
2019-02-05T09:00:04.345Z,6.09
2019-02-05T09:01:03.087Z,5.97
2019-02-05T09:02:01.660Z,6.03
2019-02-05T09:03:00.216Z,6.06
2019-02-05T09:03:58.876Z,6
2019-02-05T09:04:57.447Z,5.93
2019-02-05T09:05:55.993Z,5.99
2019-02-05T09:06:54.610Z,6.01
2019-02-05T09:07:53.210Z,6.48
2019-02-05T09:08:51.798Z,6.3
2019-02-05T09:09:50.373Z,6.34
2019-02-05T09:10:49.157Z,6.71
2019-02-05T09:11:47.682Z,6.21
2019-02-05T09:13:47.357Z,6.11
2019-02-05T09:14:45.897Z,6.17
2019-02-05T09:15:44.532Z,6.21
2019-02-05T09:16:43.274Z,6.3
2019-02-05T09:17:41.794Z,6.31
2019-02-05T09:18:40.384Z,6.3
2019-02-05T09:19:38.962Z,6.31
2019-02-05T09:20:37.546Z,6.84
2019-02-05T09:21:36.080Z,6.64
2019-02-05T09:22:34.655Z,6.48
2019-02-05T09:23:33.255Z,6.51
2019-02-05T09:24:31.892Z,6.37
2019-02-05T09:25:30.572Z,6.33
2019-02-05T09:26:29.446Z,6.27
2019-02-05T09:27:27.909Z,6.28
2019-02-05T09:28:26.501Z,6.31
2019-02-05T09:29:33.146Z,6.22
2019-02-05T09:30:23.771Z,6.11
2019-02-05T09:31:22.346Z,6.12
2019-02-05T09:32:21.051Z,6.06
2019-02-05T09:33:19.581Z,6.09
2019-02-05T09:34:18.227Z,5.99
2019-02-05T09:35:16.949Z,6.09
2019-02-05T09:36:15.556Z,6.12
2019-02-05T09:37:14.623Z,6.09
2019-02-05T09:38:13.935Z,6.08
2019-02-05T09:39:12.745Z,6.14
2019-02-05T09:40:11.689Z,6.04
2019-02-05T09:41:10.257Z,6.01
2019-02-05T09:42:08.956Z,5.9
2019-02-05T09:43:07.644Z,6.04
2019-02-05T09:44:06.210Z,6.19
2019-02-05T09:45:04.993Z,6.12
2019-02-05T09:46:03.609Z,6.17
2019-02-05T09:47:02.184Z,6.28
2019-02-05T09:48:00.876Z,6.31
2019-02-05T09:48:59.366Z,6.58
2019-02-05T09:49:57.894Z,6.55
2019-02-05T09:50:56.446Z,6.49
2019-02-05T09:51:55.070Z,6.61
2019-02-05T09:52:53.613Z,6.69
2019-02-05T09:53:52.282Z,6.69
2019-02-05T09:54:50.881Z,6.4
2019-02-05T09:55:49.679Z,6.4
2019-02-05T09:56:48.283Z,6.46
2019-02-05T09:57:46.941Z,6.56
2019-02-05T09:58:45.648Z,6.48
2019-02-05T09:59:45.517Z,6.56
2019-02-05T10:00:42.748Z,6.48
2019-02-05T10:01:41.415Z,6.34
2019-02-05T10:02:39.949Z,6.28
2019-02-05T10:03:38.515Z,6.36
2019-02-05T10:04:37.380Z,6.34
2019-02-05T10:05:35.939Z,6.52
2019-02-05T10:06:34.569Z,6.51
2019-02-05T10:07:33.244Z,6.49
2019-02-05T10:10:13.680Z,6.76
2019-02-05T10:11:12.224Z,6.8
2019-02-05T10:12:11.097Z,6.81
2019-02-05T10:13:09.747Z,7.02
2019-02-05T10:14:08.336Z,7.07
2019-02-05T10:15:06.853Z,7.43
2019-02-05T10:16:05.440Z,7.34
2019-02-05T10:17:04.051Z,7.45
2019-02-05T10:18:02.712Z,7.48
2019-02-05T10:19:01.546Z,7.31
2019-02-05T10:20:00.116Z,7.13
2019-02-05T10:20:58.815Z,7.15
2019-02-05T10:21:57.513Z,7.13
2019-02-05T10:22:56.141Z,7.15
2019-02-05T10:23:54.777Z,7.28
2019-02-05T10:24:53.706Z,7.27
2019-02-05T10:25:52.343Z,7.28
2019-02-05T10:26:50.931Z,7.42
2019-02-05T10:27:49.484Z,7.45
2019-02-05T10:28:48.057Z,7.43
2019-02-05T10:29:56.773Z,7.48
2019-02-05T10:30:45.204Z,7.43
2019-02-05T10:31:43.751Z,7.45
2019-02-05T10:32:42.371Z,7.52
2019-02-05T10:33:41.060Z,7.6
2019-02-05T10:34:39.763Z,7.52
2019-02-05T10:35:38.327Z,7.49
2019-02-05T10:36:37.098Z,7.49
2019-02-05T10:40:15.962Z,7.43
2019-02-05T10:41:14.471Z,7.46
2019-02-05T10:42:13.012Z,7.39
2019-02-05T10:43:11.604Z,7.45
2019-02-05T10:44:10.163Z,7.35
2019-02-05T10:45:08.937Z,7.42
2019-02-05T10:46:07.742Z,7.48
2019-02-05T10:47:06.334Z,7.52
2019-02-05T10:48:04.892Z,7.46
2019-02-05T10:49:03.551Z,7.52
2019-02-05T11:08:06.384Z,7.67
2019-02-05T11:09:05.152Z,7.55
2019-02-05T11:10:03.721Z,7.52
2019-02-05T11:11:02.274Z,7.55
2019-02-05T11:12:00.867Z,7.67
2019-02-05T11:12:59.697Z,7.72
2019-02-05T11:13:58.224Z,7.71
2019-02-05T11:14:56.780Z,7.69
2019-02-05T11:15:55.484Z,7.72
2019-02-05T11:16:54.058Z,7.86
2019-02-05T11:17:52.774Z,7.79
2019-02-05T11:18:51.588Z,7.82
2019-02-05T11:19:50.250Z,7.92
2019-02-05T11:20:49.014Z,7.8
2019-02-05T11:21:47.574Z,7.86
2019-02-05T11:22:46.182Z,7.83
2019-02-05T11:23:44.925Z,7.85
2019-02-05T11:24:43.645Z,7.89
2019-02-05T11:25:42.226Z,7.9
2019-02-05T11:26:40.873Z,7.75
2019-02-05T11:27:39.589Z,7.92
2019-02-05T11:28:38.284Z,8.04
2019-02-05T11:29:36.917Z,8
2019-02-05T11:30:35.710Z,8.05
2019-02-05T11:31:34.323Z,8.07
2019-02-05T11:32:32.953Z,8
2019-02-05T11:33:31.635Z,7.89
2019-02-05T11:34:30.209Z,7.93
2019-02-05T11:35:28.912Z,7.92
2019-02-05T11:36:27.504Z,7.89
2019-02-05T11:37:26.087Z,7.95
2019-02-05T11:38:24.670Z,8.04
2019-02-05T11:39:23.212Z,7.97
2019-02-05T11:40:21.964Z,8.02
2019-02-05T11:41:20.579Z,8.1
2019-02-05T11:42:19.213Z,8.1
2019-02-05T11:43:17.995Z,8.16
2019-02-05T11:44:16.702Z,8.23
2019-02-05T11:45:15.314Z,8.05
2019-02-05T11:46:14.192Z,8.04
2019-02-05T11:47:12.758Z,8.1
2019-02-05T11:48:11.353Z,8.12
2019-02-05T11:49:10.070Z,8.08
2019-02-05T11:50:08.585Z,7.97
2019-02-05T11:51:07.426Z,8.07
2019-02-05T11:52:06.218Z,8
2019-02-05T11:53:04.885Z,8.02
2019-02-05T11:54:03.492Z,8.02
2019-02-05T11:55:02.017Z,8.04
2019-02-05T11:56:00.568Z,8.04
2019-02-05T11:56:59.134Z,8.1
2019-02-05T11:57:57.694Z,8.01
2019-02-05T11:58:56.274Z,8.1
2019-02-05T11:59:54.959Z,8.01
2019-02-05T12:00:53.620Z,8.05
2019-02-05T12:01:52.182Z,7.9
2019-02-05T12:02:50.890Z,7.9
2019-02-05T12:03:49.586Z,7.93
2019-02-05T12:04:48.140Z,7.89
2019-02-05T12:05:46.683Z,7.98
2019-02-05T12:06:45.222Z,7.95
2019-02-05T12:07:43.768Z,7.93
2019-02-05T12:08:42.286Z,8
2019-02-05T12:09:40.957Z,8.1
2019-02-05T12:10:39.560Z,8.04
2019-02-05T12:11:38.139Z,8.05
2019-02-05T12:12:36.719Z,8.15
2019-02-05T12:13:35.485Z,8.12
2019-02-05T12:14:34.047Z,8.1
2019-02-05T12:15:32.658Z,8.08
2019-02-05T12:16:31.365Z,8.1
2019-02-05T12:17:29.912Z,8.07
2019-02-05T12:18:28.471Z,8.05
2019-02-05T12:19:27.022Z,8.08
2019-02-05T12:20:25.667Z,8.16
2019-02-05T12:21:24.440Z,8.08
2019-02-05T12:22:23.211Z,8.02
2019-02-05T12:23:21.791Z,8.07
2019-02-05T12:24:20.383Z,8.12
2019-02-05T12:25:24.037Z,8.02
2019-02-05T12:26:22.761Z,8
2019-02-05T12:27:21.491Z,8.05
2019-02-05T12:28:20.031Z,8.12
2019-02-05T12:29:18.705Z,8.07
2019-02-05T12:30:17.387Z,8.05
2019-02-05T12:31:16.037Z,8.04
2019-02-05T12:32:14.789Z,8.12
2019-02-05T12:33:13.600Z,8.07
2019-02-05T12:34:12.192Z,8.1
2019-02-05T12:35:10.824Z,8.08
2019-02-05T12:36:09.541Z,8.01
2019-02-05T12:37:08.209Z,8.04
2019-02-05T12:38:06.760Z,8.15
2019-02-05T12:39:05.437Z,8.18
2019-02-05T12:40:04.027Z,8.1
2019-02-05T12:41:02.592Z,8.15
2019-02-05T12:42:01.426Z,8.15
2019-02-05T12:43:00.062Z,7.98
2019-02-05T12:43:59.721Z,8.07
2019-02-05T12:44:57.120Z,8.02
2019-02-05T12:45:55.728Z,8.07
2019-02-05T12:46:54.251Z,8.07
2019-02-05T12:47:52.832Z,8.11
2019-02-05T12:48:52.183Z,8.04
2019-02-05T12:49:50.816Z,8.02
2019-02-05T12:50:49.367Z,8.08
2019-02-05T12:51:47.897Z,8.08
2019-02-05T12:52:46.441Z,8.15
2019-02-05T12:53:45.128Z,8.04
2019-02-05T12:54:43.852Z,8.1
2019-02-05T12:55:42.399Z,8.12
2019-02-05T12:56:41.017Z,8.1
2019-02-05T12:57:39.620Z,8.19
2019-02-05T12:58:38.148Z,8.16
2019-02-05T12:59:36.754Z,8.2
2019-02-05T13:00:35.428Z,8.19
2019-02-05T13:01:33.955Z,8.16
2019-02-05T13:02:32.500Z,8.25
2019-02-05T13:03:31.066Z,8.25
2019-02-05T13:04:29.603Z,8.29
2019-02-05T13:05:28.272Z,8.28
2019-02-05T13:06:26.875Z,8.33
2019-02-05T13:07:25.693Z,8.28
2019-02-05T13:08:24.307Z,8.26
2019-02-05T13:09:22.988Z,8.3
2019-02-05T13:10:21.585Z,8.37
2019-02-05T13:11:20.145Z,8.33
2019-02-05T13:12:18.640Z,8.25
2019-02-05T13:13:18.203Z,8.33
2019-02-05T13:14:15.727Z,8.29
2019-02-05T13:15:14.299Z,8.28
2019-02-05T13:16:12.922Z,8.37
2019-02-05T13:17:11.552Z,8.34
2019-02-05T13:18:10.171Z,8.34
2019-02-05T13:19:08.758Z,8.33
2019-02-05T13:20:07.421Z,8.34
2019-02-05T13:21:06.097Z,8.41
2019-02-05T13:22:04.591Z,8.38
2019-02-05T13:23:03.244Z,8.45
2019-02-05T13:24:01.811Z,8.47
2019-02-05T13:25:00.369Z,8.4
2019-02-05T13:25:58.882Z,8.43
2019-02-05T13:26:57.484Z,8.4
2019-02-05T13:27:56.051Z,8.48
2019-02-05T13:28:54.714Z,8.47
2019-02-05T13:29:53.361Z,8.48
2019-02-05T13:30:52.002Z,8.48
2019-02-05T13:31:50.775Z,8.44
2019-02-05T13:32:49.426Z,8.47
2019-02-05T13:33:47.968Z,8.47
2019-02-05T13:34:46.834Z,8.44
2019-02-05T13:35:45.610Z,8.55
2019-02-05T13:36:44.156Z,8.58
2019-02-05T13:37:42.773Z,8.59
2019-02-05T13:38:41.333Z,8.56
2019-02-05T13:39:39.952Z,8.58
2019-02-05T13:40:38.517Z,8.62
2019-02-05T13:41:37.059Z,8.55
2019-02-05T13:42:35.667Z,8.56
2019-02-05T13:43:34.331Z,8.62
2019-02-05T13:44:33.004Z,8.62
2019-02-05T13:45:31.724Z,8.61
2019-02-05T13:46:30.367Z,8.61
2019-02-05T13:47:29.007Z,8.59
2019-02-05T13:48:27.662Z,8.53
2019-02-05T13:49:26.188Z,8.59
2019-02-05T13:50:32.350Z,8.65
2019-02-05T13:51:23.610Z,8.68
2019-02-05T13:52:22.147Z,8.56
2019-02-05T13:53:20.721Z,8.7
2019-02-05T13:54:19.349Z,8.7
2019-02-05T13:55:17.957Z,8.61
2019-02-05T13:56:16.566Z,8.68
2019-02-05T13:57:15.193Z,8.65
2019-02-05T13:58:13.866Z,8.79
2019-02-05T13:59:12.463Z,8.77
2019-02-05T14:00:11.026Z,8.74
2019-02-05T14:01:19.498Z,8.73